Time;durP1;ratioP1;P1;durP2;ratioP2;P2;SDS_P1;SDS_P2;PMS_P1;PMS_P2;Temp;Humidity;BMP_temperature;BMP_pressure;BME280_temperature;BME280_humidity;BME280_pressure;Samples;Min_cycle;Max_cycle;Signal;HPM_P1;HPM_P2
2022/09/25 00:01:07;;;;;;;;;;;;;;;;;;4936482;29;20337;-88
2022/09/25 00:03:33;;;;;;;;;;;;;;;;;;4937163;29;20334;-87
2022/09/25 00:05:58;;;;;;;;;;;;;;;;;;4936596;29;19944;-87
2022/09/25 00:08:23;;;;;;;;;;;;;;;;;;4936817;29;19911;-87
2022/09/25 00:10:48;;;;;;;;;;;;;;;;;;4936392;29;19949;-86
2022/09/25 00:13:14;;;;;;;;;;;;;;;;;;4936522;29;19959;-87
2022/09/25 00:15:39;;;;;;;;;;;;;;;;;;4919119;29;20386;-87
2022/09/25 00:18:04;;;;;;;;;;;;;;;;;;4936449;29;20362;-86
2022/09/25 00:20:29;;;;;;;;;;;;;;;;;;4935300;29;19915;-88
2022/09/25 00:22:55;;;;;;;;;;;;;;;;;;4935435;29;19976;-86
2022/09/25 00:25:20;;;;;;;;;;;;;;;;;;4935472;29;20001;-87
2022/09/25 00:27:45;;;;;;;;;;;;;;;;;;4935424;29;19911;-86
2022/09/25 00:30:10;;;;;;;;;;;;;;;;;;4935065;29;19911;-87
2022/09/25 00:32:36;;;;;;;;;;;;;;;;;;4935560;29;20478;-87
2022/09/25 00:35:01;;;;;;;;;;;;;;;;;;4935703;29;20280;-87
2022/09/25 00:37:29;;;;;;;;;;;;;;;;;;4935509;29;20288;-86
2022/09/25 00:39:54;;;;;;;;;;;;;;;;;;4935269;29;19921;-86
2022/09/25 00:42:19;;;;;;;;;;;;;;;;;;4934668;29;20001;-87
2022/09/25 00:44:44;;;;;;;;;;;;;;;;;;4934496;29;19997;-87
2022/09/25 00:47:10;;;;;;;;;;;;;;;;;;4934652;29;19911;-89
2022/09/25 00:49:35;;;;;;;;;;;;;;;;;;4934589;29;19911;-86
2022/09/25 00:52:00;;;;;;;;;;;;;;;;;;4934546;29;19960;-87
2022/09/25 00:54:26;;;;;;;;;;;;;;;;;;4934762;29;19917;-86
2022/09/25 00:56:51;;;;;;;;;;;;;;;;;;4934314;29;19911;-87
2022/09/25 00:59:16;;;;;;;;;;;;;;;;;;4934372;29;19970;-86
2022/09/25 01:01:41;;;;;;;;;;;;;;;;;;4935212;29;19918;-87
2022/09/25 01:04:06;;;;;;;;;;;;;;;;;;4935653;29;19914;-86
2022/09/25 01:06:32;;;;;;;;;;;;;;;;;;4935124;29;19919;-87
2022/09/25 01:08:57;;;;;;;;;;;;;;;;;;4934822;29;19915;-86
2022/09/25 01:11:22;;;;;;;;;;;;;;;;;;4938867;29;19911;-86
2022/09/25 01:13:48;;;;;;;;;;;;;;;;;;4938909;29;19911;-87
2022/09/25 01:16:13;;;;;;;;;;;;;;;;;;4931254;29;19930;-85
2022/09/25 01:18:38;;;;;;;;;;;;;;;;;;4926458;29;20014;-85
2022/09/25 01:21:04;;;;;;;;;;;;;;;;;;4926795;29;19915;-85
2022/09/25 01:23:29;;;;;;;;;;;;;;;;;;4921981;29;20164;-84
2022/09/25 01:25:55;;;;;;;;;;;;;;;;;;4923002;29;19926;-85
2022/09/25 01:28:20;;;;;;;;;;;;;;;;;;4921398;29;19923;-85
2022/09/25 01:30:45;;;;;;;;;;;;;;;;;;4924719;29;20124;-85
2022/09/25 01:33:10;;;;;;;;;;;;;;;;;;4918342;29;20407;-85
2022/09/25 01:35:36;;;;;;;;;;;;;;;;;;4924801;29;19922;-84
2022/09/25 01:38:01;;;;;;;;;;;;;;;;;;4920419;29;20401;-85
2022/09/25 01:40:27;;;;;;;;;;;;;;;;;;4926218;29;20017;-85
2022/09/25 01:42:52;;;;;;;;;;;;;;;;;;4921670;29;19934;-85
2022/09/25 01:45:17;;;;;;;;;;;;;;;;;;4932251;29;20331;-85
2022/09/25 01:47:42;;;;;;;;;;;;;;;;;;4931371;29;20258;-85
2022/09/25 01:50:08;;;;;;;;;;;;;;;;;;4921741;29;19960;-85
2022/09/25 01:52:33;;;;;;;;;;;;;;;;;;4923305;29;19915;-85
2022/09/25 01:54:59;;;;;;;;;;;;;;;;;;4924261;29;19915;-85
2022/09/25 01:57:24;;;;;;;;;;;;;;;;;;4922762;29;19919;-85
2022/09/25 01:59:50;;;;;;;;;;;;;;;;;;4926527;29;19923;-85
2022/09/25 02:02:15;;;;;;;;;;;;;;;;;;4920827;29;20388;-85
2022/09/25 02:04:40;;;;;;;;;;;;;;;;;;4919683;29;19921;-84
2022/09/25 02:07:06;;;;;;;;;;;;;;;;;;4922220;29;20329;-85
2022/09/25 02:09:32;;;;;;;;;;;;;;;;;;4924928;29;20345;-85
2022/09/25 02:11:57;;;;;;;;;;;;;;;;;;4923158;29;19919;-85
2022/09/25 02:14:22;;;;;;;;;;;;;;;;;;4920204;29;19937;-84
2022/09/25 02:16:47;;;;;;;;;;;;;;;;;;4924665;29;19919;-85
2022/09/25 02:21:56;;;;;;;;;;;;;;;;;;4930514;28;19963;-85
2022/09/25 02:24:21;;;;;;;;;;;;;;;;;;4925377;29;19918;-84
2022/09/25 02:26:47;;;;;;;;;;;;;;;;;;4924284;29;19925;-85
2022/09/25 02:29:12;;;;;;;;;;;;;;;;;;4932698;29;20001;-85
2022/09/25 02:31:39;;;;;;;;;;;;;;;;;;4924991;29;19931;-85
2022/09/25 02:34:04;;;;;;;;;;;;;;;;;;4922540;29;20143;-85
2022/09/25 02:36:31;;;;;;;;;;;;;;;;;;4922166;29;19957;-85
2022/09/25 02:38:56;;;;;;;;;;;;;;;;;;4931904;29;20038;-85
2022/09/25 02:41:21;;;;;;;;;;;;;;;;;;4930390;29;20006;-85
2022/09/25 02:43:46;;;;;;;;;;;;;;;;;;4923473;29;19923;-85
2022/09/25 02:46:11;;;;;;;;;;;;;;;;;;4923965;29;20342;-85
2022/09/25 02:48:36;;;;;;;;;;;;;;;;;;4923262;29;19926;-85
2022/09/25 02:51:03;;;;;;;;;;;;;;;;;;4918348;29;19919;-85
2022/09/25 02:53:28;;;;;;;;;;;;;;;;;;4917953;29;19983;-85
2022/09/25 02:55:53;;;;;;;;;;;;;;;;;;4920992;29;19923;-85
2022/09/25 02:58:18;;;;;;;;;;;;;;;;;;4919802;29;20304;-85
2022/09/25 03:00:43;;;;;;;;;;;;;;;;;;4921659;29;19922;-85
2022/09/25 03:03:08;;;;;;;;;;;;;;;;;;4916077;29;20412;-85
2022/09/25 03:05:34;;;;;;;;;;;;;;;;;;4917521;29;19923;-85
2022/09/25 03:10:45;;;;;;;;;;;;;;;;;;4917089;29;19929;-85
2022/09/25 03:13:10;;;;;;;;;;;;;;;;;;4921717;29;20018;-85
2022/09/25 03:15:36;;;;;;;;;;;;;;;;;;4914717;29;20017;-85
2022/09/25 03:18:01;;;;;;;;;;;;;;;;;;4920652;29;19926;-85
2022/09/25 03:20:26;;;;;;;;;;;;;;;;;;4920047;29;19983;-85
2022/09/25 03:22:51;;;;;;;;;;;;;;;;;;4926487;29;19931;-85
2022/09/25 03:25:16;;;;;;;;;;;;;;;;;;4918931;29;19915;-85
2022/09/25 03:27:41;;;;;;;;;;;;;;;;;;4916130;29;20347;-84
2022/09/25 03:30:06;;;;;;;;;;;;;;;;;;4923590;29;19926;-84
2022/09/25 03:32:32;;;;;;;;;;;;;;;;;;4918480;29;20134;-85
2022/09/25 03:34:57;;;;;;;;;;;;;;;;;;4929068;29;19922;-85
2022/09/25 03:37:23;;;;;;;;;;;;;;;;;;4925591;29;19921;-85
2022/09/25 03:39:49;;;;;;;;;;;;;;;;;;4922909;29;20163;-85
2022/09/25 03:42:14;;;;;;;;;;;;;;;;;;4923909;29;19953;-85
2022/09/25 03:44:39;;;;;;;;;;;;;;;;;;4928934;29;20393;-85
2022/09/25 03:47:04;;;;;;;;;;;;;;;;;;4925049;29;20006;-85
2022/09/25 03:49:29;;;;;;;;;;;;;;;;;;4922786;29;19919;-85
2022/09/25 03:51:55;;;;;;;;;;;;;;;;;;4920927;29;19915;-85
2022/09/25 03:54:20;;;;;;;;;;;;;;;;;;4923600;29;19919;-84
2022/09/25 03:56:45;;;;;;;;;;;;;;;;;;4924918;29;20445;-85
2022/09/25 03:59:10;;;;;;;;;;;;;;;;;;4917583;29;20129;-85
2022/09/25 04:01:36;;;;;;;;;;;;;;;;;;4925220;29;20156;-85
2022/09/25 04:04:01;;;;;;;;;;;;;;;;;;4919510;29;19923;-85
2022/09/25 04:06:27;;;;;;;;;;;;;;;;;;4915769;29;20408;-85
2022/09/25 04:08:52;;;;;;;;;;;;;;;;;;4917811;29;20013;-85
2022/09/25 04:11:17;;;;;;;;;;;;;;;;;;4916707;29;19919;-85
2022/09/25 04:13:43;;;;;;;;;;;;;;;;;;4920547;29;19922;-85
2022/09/25 04:16:08;;;;;;;;;;;;;;;;;;4916669;29;20333;-85
2022/09/25 04:18:33;;;;;;;;;;;;;;;;;;4920371;29;19915;-85
2022/09/25 04:20:59;;;;;;;;;;;;;;;;;;4916463;29;20016;-84
2022/09/25 04:23:24;;;;;;;;;;;;;;;;;;4918678;29;20006;-85
2022/09/25 04:25:49;;;;;;;;;;;;;;;;;;4918290;29;20010;-85
2022/09/25 04:28:14;;;;;;;;;;;;;;;;;;4917317;29;20006;-85
2022/09/25 04:30:39;;;;;;;;;;;;;;;;;;4917416;29;19934;-85
2022/09/25 04:35:49;;;;;;;;;;;;;;;;;;4918519;29;19926;-85
2022/09/25 04:38:14;;;;;;;;;;;;;;;;;;4918359;29;19915;-85
2022/09/25 04:40:39;;;;;;;;;;;;;;;;;;4920158;29;19919;-85
2022/09/25 04:43:04;;;;;;;;;;;;;;;;;;4916212;29;20194;-85
2022/09/25 04:45:29;;;;;;;;;;;;;;;;;;4920353;29;19915;-85
2022/09/25 04:47:55;;;;;;;;;;;;;;;;;;4917048;29;19915;-85
2022/09/25 04:50:20;;;;;;;;;;;;;;;;;;4918646;29;19922;-85
2022/09/25 04:52:45;;;;;;;;;;;;;;;;;;4918971;29;19915;-85
2022/09/25 04:55:10;;;;;;;;;;;;;;;;;;4909541;29;19919;-85
2022/09/25 04:57:35;;;;;;;;;;;;;;;;;;4917376;29;19958;-85
2022/09/25 05:00:01;;;;;;;;;;;;;;;;;;4915485;29;19977;-85
2022/09/25 05:02:26;;;;;;;;;;;;;;;;;;4918352;29;19927;-85
2022/09/25 05:04:52;;;;;;;;;;;;;;;;;;4916300;29;20014;-85
2022/09/25 05:07:17;;;;;;;;;;;;;;;;;;4918190;29;19926;-85
2022/09/25 05:09:42;;;;;;;;;;;;;;;;;;4917795;29;19997;-84
2022/09/25 05:12:07;;;;;;;;;;;;;;;;;;4918999;29;19931;-84
2022/09/25 05:14:32;;;;;;;;;;;;;;;;;;4917748;29;20386;-85
2022/09/25 05:16:57;;;;;;;;;;;;;;;;;;4916683;29;19919;-85
2022/09/25 05:19:22;;;;;;;;;;;;;;;;;;4914243;29;20432;-84
2022/09/25 05:21:48;;;;;;;;;;;;;;;;;;4916317;29;20540;-85
2022/09/25 05:24:13;;;;;;;;;;;;;;;;;;4916238;29;19926;-85
2022/09/25 05:26:39;;;;;;;;;;;;;;;;;;4920731;29;19930;-85
2022/09/25 05:29:04;;;;;;;;;;;;;;;;;;4919284;29;19915;-85
2022/09/25 05:31:29;;;;;;;;;;;;;;;;;;4901128;29;19927;-85
2022/09/25 05:33:54;;;;;;;;;;;;;;;;;;4922715;29;19923;-85
2022/09/25 05:36:19;;;;;;;;;;;;;;;;;;4915454;29;20292;-85
2022/09/25 05:38:45;;;;;;;;;;;;;;;;;;4923630;29;19964;-85
2022/09/25 05:41:10;;;;;;;;;;;;;;;;;;4922450;29;20301;-85
2022/09/25 05:43:35;;;;;;;;;;;;;;;;;;4917043;29;20006;-85
2022/09/25 05:46:00;;;;;;;;;;;;;;;;;;4910151;29;19922;-84
2022/09/25 05:48:25;;;;;;;;;;;;;;;;;;4921043;29;19918;-85
2022/09/25 05:50:51;;;;;;;;;;;;;;;;;;4921593;29;19915;-85
2022/09/25 05:53:16;;;;;;;;;;;;;;;;;;4916174;29;19922;-85
2022/09/25 05:55:41;;;;;;;;;;;;;;;;;;4924809;29;19915;-85
2022/09/25 05:58:06;;;;;;;;;;;;;;;;;;4919662;29;20285;-85
2022/09/25 06:00:31;;;;;;;;;;;;;;;;;;4928653;29;19970;-85
2022/09/25 06:02:56;;;;;;;;;;;;;;;;;;4921202;29;20635;-85
2022/09/25 06:05:24;;;;;;;;;;;;;;;;;;4923105;29;21317;-85
2022/09/25 06:07:49;;;;;;;;;;;;;;;;;;4919065;29;20150;-85
2022/09/25 06:10:14;;;;;;;;;;;;;;;;;;4925154;29;20325;-84
2022/09/25 06:12:39;;;;;;;;;;;;;;;;;;4921762;29;19915;-85
2022/09/25 06:15:05;;;;;;;;;;;;;;;;;;4916386;29;19916;-85
2022/09/25 06:17:30;;;;;;;;;;;;;;;;;;4921601;29;19971;-84
2022/09/25 06:19:55;;;;;;;;;;;;;;;;;;4916626;29;19935;-85
2022/09/25 06:22:20;;;;;;;;;;;;;;;;;;4921328;29;20317;-85
2022/09/25 06:24:47;;;;;;;;;;;;;;;;;;4919956;29;19919;-85
2022/09/25 06:27:12;;;;;;;;;;;;;;;;;;4918952;29;20329;-84
2022/09/25 06:29:37;;;;;;;;;;;;;;;;;;4919904;29;19922;-85
2022/09/25 06:32:02;;;;;;;;;;;;;;;;;;4922728;29;19998;-84
2022/09/25 06:34:28;;;;;;;;;;;;;;;;;;4920563;29;19933;-85
2022/09/25 06:36:53;;;;;;;;;;;;;;;;;;4922804;29;19916;-85
2022/09/25 06:39:18;;;;;;;;;;;;;;;;;;4920236;29;20017;-85
2022/09/25 06:41:43;;;;;;;;;;;;;;;;;;4921683;29;19970;-84
2022/09/25 06:44:08;;;;;;;;;;;;;;;;;;4921255;29;20292;-84
2022/09/25 06:46:34;;;;;;;;;;;;;;;;;;4918157;29;19962;-85
2022/09/25 06:48:59;;;;;;;;;;;;;;;;;;4922055;29;20009;-85
2022/09/25 06:51:24;;;;;;;;;;;;;;;;;;4918604;29;19986;-85
2022/09/25 06:53:49;;;;;;;;;;;;;;;;;;4920666;29;20347;-85
2022/09/25 06:56:14;;;;;;;;;;;;;;;;;;4923931;29;19919;-85
2022/09/25 06:58:39;;;;;;;;;;;;;;;;;;4916502;29;20399;-85
2022/09/25 07:01:09;;;;;;;;;;;;;;;;;;4917557;29;19921;-84
2022/09/25 07:03:43;;;;;;;;;;;;;;;;;;4918604;29;20644;-85
2022/09/25 07:06:09;;;;;;;;;;;;;;;;;;4915158;29;19923;-84
2022/09/25 07:08:34;;;;;;;;;;;;;;;;;;4923115;29;21254;-85
2022/09/25 07:11:00;;;;;;;;;;;;;;;;;;4924856;29;19918;-85
2022/09/25 07:13:26;;;;;;;;;;;;;;;;;;4919923;29;19915;-85
2022/09/25 07:15:51;;;;;;;;;;;;;;;;;;4916128;29;20015;-85
2022/09/25 07:18:16;;;;;;;;;;;;;;;;;;4925332;29;19915;-85
2022/09/25 07:20:44;;;;;;;;;;;;;;;;;;4926984;29;20231;-84
2022/09/25 07:23:09;;;;;;;;;;;;;;;;;;4927425;29;19950;-85
2022/09/25 07:25:35;;;;;;;;;;;;;;;;;;4924479;29;19919;-84
2022/09/25 07:28:00;;;;;;;;;;;;;;;;;;4925542;29;19921;-85
2022/09/25 07:30:25;;;;;;;;;;;;;;;;;;4920330;29;19963;-85
2022/09/25 07:32:50;;;;;;;;;;;;;;;;;;4922181;29;19918;-84
2022/09/25 07:35:15;;;;;;;;;;;;;;;;;;4922577;29;19915;-84
2022/09/25 07:37:40;;;;;;;;;;;;;;;;;;4922767;29;19922;-85
2022/09/25 07:40:05;;;;;;;;;;;;;;;;;;4923182;29;19922;-84
2022/09/25 07:42:31;;;;;;;;;;;;;;;;;;4922967;29;19925;-85
2022/09/25 07:44:56;;;;;;;;;;;;;;;;;;4917041;29;20421;-85
2022/09/25 07:47:21;;;;;;;;;;;;;;;;;;4917978;29;19975;-85
2022/09/25 07:49:46;;;;;;;;;;;;;;;;;;4916195;29;20124;-84
2022/09/25 07:52:12;;;;;;;;;;;;;;;;;;4916706;29;19934;-85
2022/09/25 07:54:37;;;;;;;;;;;;;;;;;;4917295;29;19915;-84
2022/09/25 07:57:02;;;;;;;;;;;;;;;;;;4922403;29;19923;-85
2022/09/25 07:59:27;;;;;;;;;;;;;;;;;;4920085;29;19926;-84
2022/09/25 08:01:53;;;;;;;;;;;;;;;;;;4919837;29;19927;-85
2022/09/25 08:04:18;;;;;;;;;;;;;;;;;;4920239;29;19925;-85
2022/09/25 08:06:43;;;;;;;;;;;;;;;;;;4918150;29;20445;-84
2022/09/25 08:09:08;;;;;;;;;;;;;;;;;;4924810;29;20010;-84
2022/09/25 08:11:33;;;;;;;;;;;;;;;;;;4919134;29;19915;-84
2022/09/25 08:13:59;;;;;;;;;;;;;;;;;;4901651;29;19929;-84
2022/09/25 08:16:24;;;;;;;;;;;;;;;;;;4919407;29;19919;-85
2022/09/25 08:18:49;;;;;;;;;;;;;;;;;;4916173;29;19971;-85
2022/09/25 08:21:14;;;;;;;;;;;;;;;;;;4919932;29;20259;-85
2022/09/25 08:23:39;;;;;;;;;;;;;;;;;;4920852;29;20280;-85
2022/09/25 08:26:04;;;;;;;;;;;;;;;;;;4918726;29;19925;-84
2022/09/25 08:28:30;;;;;;;;;;;;;;;;;;4916671;29;19914;-85
2022/09/25 08:30:55;;;;;;;;;;;;;;;;;;4916310;29;19923;-85
2022/09/25 08:33:20;;;;;;;;;;;;;;;;;;4919921;29;20013;-84
2022/09/25 08:35:45;;;;;;;;;;;;;;;;;;4927809;29;20378;-84
2022/09/25 08:38:13;;;;;;;;;;;;;;;;;;4919482;29;19915;-84
2022/09/25 08:40:38;;;;;;;;;;;;;;;;;;4917582;29;19923;-84
2022/09/25 08:43:04;;;;;;;;;;;;;;;;;;4916135;29;20053;-84
2022/09/25 08:50:56;;;;;;;;;;;;;;;;;;4921650;29;20436;-85
2022/09/25 08:53:22;;;;;;;;;;;;;;;;;;4924942;29;19950;-85
2022/09/25 08:58:31;;;;;;;;;;;;;;;;;;4929187;29;19942;-85
2022/09/25 09:00:56;;;;;;;;;;;;;;;;;;4922693;29;20712;-86
2022/09/25 09:03:21;;;;;;;;;;;;;;;;;;4923266;29;19923;-84
2022/09/25 09:05:46;;;;;;;;;;;;;;;;;;4920971;29;19919;-85
2022/09/25 09:08:11;;;;;;;;;;;;;;;;;;4934197;29;19994;-84
2022/09/25 09:10:37;;;;;;;;;;;;;;;;;;4919961;29;19920;-85
2022/09/25 09:13:02;;;;;;;;;;;;;;;;;;4928179;29;19922;-86
2022/09/25 09:15:27;;;;;;;;;;;;;;;;;;4926427;29;20017;-87
2022/09/25 09:17:52;;;;;;;;;;;;;;;;;;4933859;29;19916;-91
2022/09/25 09:20:17;;;;;;;;;;;;;;;;;;4934378;29;20728;-91
2022/09/25 09:22:43;;;;;;;;;;;;;;;;;;4930376;29;19915;-91
2022/09/25 09:25:08;;;;;;;;;;;;;;;;;;4943787;29;19945;-90
2022/09/25 09:27:33;;;;;;;;;;;;;;;;;;4926084;29;20024;-91
2022/09/25 09:29:58;;;;;;;;;;;;;;;;;;4918961;29;19934;-92
2022/09/25 09:32:23;;;;;;;;;;;;;;;;;;4919696;29;20014;-92
2022/09/25 09:34:49;;;;;;;;;;;;;;;;;;4936502;29;19966;-92
2022/09/25 09:37:14;;;;;;;;;;;;;;;;;;4938209;29;19915;-92
2022/09/25 09:39:39;;;;;;;;;;;;;;;;;;4942692;29;19961;-93
2022/09/25 09:42:10;;;;;;;;;;;;;;;;;;4944577;29;19911;-92
2022/09/25 09:44:36;;;;;;;;;;;;;;;;;;4948942;29;20179;-92
2022/09/25 09:47:02;;;;;;;;;;;;;;;;;;4938475;29;19934;-94
2022/09/25 09:49:28;;;;;;;;;;;;;;;;;;4940382;29;19911;-93
2022/09/25 09:51:53;;;;;;;;;;;;;;;;;;4920847;29;19911;-93
2022/09/25 09:54:20;;;;;;;;;;;;;;;;;;4920285;29;19934;-92
2022/09/25 09:56:46;;;;;;;;;;;;;;;;;;4919031;29;19911;-95
2022/09/25 09:59:11;;;;;;;;;;;;;;;;;;4926797;29;19925;-92
2022/09/25 10:01:36;;;;;;;;;;;;;;;;;;4929972;29;19915;-93
2022/09/25 10:04:01;;;;;;;;;;;;;;;;;;4928820;29;20258;-92
2022/09/25 10:06:26;;;;;;;;;;;;;;;;;;4939085;29;19917;-92
2022/09/25 10:08:52;;;;;;;;;;;;;;;;;;4940317;29;19926;-91
2022/09/25 10:11:17;;;;;;;;;;;;;;;;;;4939336;29;19921;-92
2022/09/25 10:13:43;;;;;;;;;;;;;;;;;;4942772;29;20382;-92
2022/09/25 10:16:10;;;;;;;;;;;;;;;;;;4941191;29;19926;-93
2022/09/25 10:18:36;;;;;;;;;;;;;;;;;;4940104;29;20001;-92
2022/09/25 10:21:01;;;;;;;;;;;;;;;;;;4939441;29;19982;-93
2022/09/25 10:23:26;;;;;;;;;;;;;;;;;;4940063;29;20401;-92
2022/09/25 10:25:51;;;;;;;;;;;;;;;;;;4939588;29;19966;-92
2022/09/25 10:28:17;;;;;;;;;;;;;;;;;;4939855;29;19911;-93
2022/09/25 10:30:42;;;;;;;;;;;;;;;;;;4939650;29;19917;-93
2022/09/25 10:33:07;;;;;;;;;;;;;;;;;;4940863;29;19918;-93
2022/09/25 10:35:32;;;;;;;;;;;;;;;;;;4925588;29;20364;-92
2022/09/25 10:38:03;;;;;;;;;;;;;;;;;;4944420;29;19915;-92
2022/09/25 14:42:05;;;;;;;;;;;;;;;;;;4914636;29;20026;-33
2022/09/25 14:44:30;;;;;;;;;;;;;;;;;;4916922;29;20436;-33
2022/09/25 14:46:56;;;;;;;;;;;;;;;;;;4917131;29;20384;-33
2022/09/25 14:49:22;;;;;;;;;;;;;;;;;;4916899;29;19925;-33
2022/09/25 14:51:49;;;;;;;;;;;;;;;;;;4905237;29;20445;-34
2022/09/25 14:54:15;;;;;;;;;;;;;;;;;;4899795;29;20466;-34
2022/09/25 14:56:40;;;;;;;;;;;;;;;;;;4903574;29;19925;-34
2022/09/25 14:59:05;;;;;;;;;;;;;;;;;;4905340;29;19915;-34
2022/09/25 15:01:30;;;;;;;;;;;;;;;;;;4901395;29;19923;-35
2022/09/25 15:03:57;;;;;;;;;;;;;;;;;;4901818;29;20018;-35
2022/09/25 15:06:23;;;;;;;;;;;;;;;;;;4902482;29;19919;-34
2022/09/25 15:08:48;;;;;;;;;;;;;;;;;;4901395;29;19915;-34
2022/09/25 15:11:14;;;;;;;;;;;;;;;;;;4907773;29;19915;-34
2022/09/25 15:13:39;;;;;;;;;;;;;;;;;;4899833;29;20049;-34
2022/09/25 15:18:48;;;;;;;;;;;;;;;;;;4901226;29;20067;-35
2022/09/25 15:21:13;;;;;;;;;;;;;;;;;;4901541;29;20289;-34
2022/09/25 15:23:38;;;;;;;;;;;;;;;;;;4897774;29;19923;-34
2022/09/25 15:26:03;;;;;;;;;;;;;;;;;;4901723;29;19939;-34
2022/09/25 15:28:29;;;;;;;;;;;;;;;;;;4899082;29;19919;-35
2022/09/25 15:30:55;;;;;;;;;;;;;;;;;;4902402;29;19930;-34
2022/09/25 15:33:20;;;;;;;;;;;;;;;;;;4896451;29;20251;-35
2022/09/25 15:35:45;;;;;;;;;;;;;;;;;;4887214;29;19983;-34
2022/09/25 15:38:10;;;;;;;;;;;;;;;;;;4901158;29;19966;-35
2022/09/25 15:40:35;;;;;;;;;;;;;;;;;;4899636;29;19924;-34
2022/09/25 15:43:01;;;;;;;;;;;;;;;;;;4900105;29;20234;-34
2022/09/25 15:45:26;;;;;;;;;;;;;;;;;;4903017;29;19926;-34
2022/09/25 15:47:52;;;;;;;;;;;;;;;;;;4900820;29;19967;-34
2022/09/25 15:50:17;;;;;;;;;;;;;;;;;;4905932;29;19919;-35
2022/09/25 15:52:42;;;;;;;;;;;;;;;;;;4900798;29;19919;-34
2022/09/25 15:55:07;;;;;;;;;;;;;;;;;;4897013;29;19919;-34
2022/09/25 15:57:32;;;;;;;;;;;;;;;;;;4901197;29;20286;-35
2022/09/25 16:05:25;;;;;;;;;;;;;;;;;;4900688;29;20102;-35
2022/09/25 16:07:50;;;;;;;;;;;;;;;;;;4902007;29;19919;-35
2022/09/25 16:10:15;;;;;;;;;;;;;;;;;;4900098;29;19917;-35
2022/09/25 16:12:41;;;;;;;;;;;;;;;;;;4896218;29;19923;-35
2022/09/25 16:15:06;;;;;;;;;;;;;;;;;;4901283;29;19926;-35
2022/09/25 16:17:31;;;;;;;;;;;;;;;;;;4897358;29;19998;-35
2022/09/25 16:19:56;;;;;;;;;;;;;;;;;;4897941;29;19923;-35
2022/09/25 16:22:22;;;;;;;;;;;;;;;;;;4896340;29;19919;-35
2022/09/25 16:24:47;;;;;;;;;;;;;;;;;;4896859;29;19919;-35
2022/09/25 16:27:13;;;;;;;;;;;;;;;;;;4898396;29;20072;-35
2022/09/25 16:29:38;;;;;;;;;;;;;;;;;;4906361;29;20108;-35
2022/09/25 16:32:03;;;;;;;;;;;;;;;;;;4906520;29;20827;-35
2022/09/25 16:34:28;;;;;;;;;;;;;;;;;;4899797;29;19930;-35
2022/09/25 16:36:54;;;;;;;;;;;;;;;;;;4906386;29;20412;-34
2022/09/25 16:39:19;;;;;;;;;;;;;;;;;;4897172;29;20006;-35
2022/09/25 16:41:45;;;;;;;;;;;;;;;;;;4899413;29;21539;-35
2022/09/25 16:44:13;;;;;;;;;;;;;;;;;;4897996;29;19986;-35
2022/09/25 16:46:40;;;;;;;;;;;;;;;;;;4899949;29;19986;-35
2022/09/25 16:49:05;;;;;;;;;;;;;;;;;;4901830;29;19923;-35
2022/09/25 16:51:30;;;;;;;;;;;;;;;;;;4896538;29;20336;-35
2022/09/25 16:53:57;;;;;;;;;;;;;;;;;;4897524;29;19950;-35
2022/09/25 16:56:24;;;;;;;;;;;;;;;;;;4895653;29;19926;-35
2022/09/25 16:58:49;;;;;;;;;;;;;;;;;;4904293;29;19962;-35
2022/09/25 17:01:14;;;;;;;;;;;;;;;;;;4908771;29;19962;-35
2022/09/25 17:03:49;;;;;;;;;;;;;;;;;;4902141;29;20085;-35
2022/09/25 17:06:14;;;;;;;;;;;;;;;;;;4899636;29;20014;-35
2022/09/25 17:08:39;;;;;;;;;;;;;;;;;;4903526;29;20026;-35
2022/09/25 17:11:04;;;;;;;;;;;;;;;;;;4898426;29;19919;-35
2022/09/25 17:13:30;;;;;;;;;;;;;;;;;;4898960;29;19919;-35
2022/09/25 17:15:56;;;;;;;;;;;;;;;;;;4896592;29;20006;-34
2022/09/25 17:18:21;;;;;;;;;;;;;;;;;;4890068;29;20066;-35
2022/09/25 17:20:46;;;;;;;;;;;;;;;;;;4896818;29;19923;-35
2022/09/25 17:23:11;;;;;;;;;;;;;;;;;;4903684;29;20345;-35
2022/09/25 17:25:37;;;;;;;;;;;;;;;;;;4901972;29;19931;-35
2022/09/25 17:28:02;;;;;;;;;;;;;;;;;;4898752;29;19916;-35
2022/09/25 17:30:27;;;;;;;;;;;;;;;;;;4895352;29;19988;-34
2022/09/25 17:32:52;;;;;;;;;;;;;;;;;;4899016;29;19931;-35
2022/09/25 17:35:17;;;;;;;;;;;;;;;;;;4892257;29;20346;-35
2022/09/25 17:37:42;;;;;;;;;;;;;;;;;;4898588;29;19923;-34
2022/09/25 17:40:07;;;;;;;;;;;;;;;;;;4897679;29;20441;-35
2022/09/25 17:42:33;;;;;;;;;;;;;;;;;;4893914;29;19995;-34
2022/09/25 17:44:59;;;;;;;;;;;;;;;;;;4897186;29;19924;-35
2022/09/25 17:47:24;;;;;;;;;;;;;;;;;;4897631;29;20354;-35
2022/09/25 17:49:49;;;;;;;;;;;;;;;;;;4896752;29;19923;-34
2022/09/25 17:52:14;;;;;;;;;;;;;;;;;;4902420;29;19919;-35
2022/09/25 17:54:39;;;;;;;;;;;;;;;;;;4898582;29;19947;-35
2022/09/25 17:57:04;;;;;;;;;;;;;;;;;;4905601;29;19923;-34
2022/09/25 17:59:30;;;;;;;;;;;;;;;;;;4905745;29;20025;-35
2022/09/25 18:01:58;;;;;;;;;;;;;;;;;;4909274;29;19923;-34
2022/09/25 18:04:23;;;;;;;;;;;;;;;;;;4895898;29;20007;-34
2022/09/25 18:06:48;;;;;;;;;;;;;;;;;;4900518;29;19928;-34
2022/09/25 18:09:13;;;;;;;;;;;;;;;;;;4901914;29;20387;-34
2022/09/25 18:11:42;;;;;;;;;;;;;;;;;;4902269;29;19923;-35
2022/09/25 18:14:07;;;;;;;;;;;;;;;;;;4902084;29;19954;-34
2022/09/25 18:16:32;;;;;;;;;;;;;;;;;;4900999;29;19978;-34
2022/09/25 18:24:25;;;;;;;;;;;;;;;;;;4895521;29;19931;-34
2022/09/25 18:26:50;;;;;;;;;;;;;;;;;;4898058;29;20044;-34
2022/09/25 18:29:16;;;;;;;;;;;;;;;;;;4905982;29;19915;-34
2022/09/25 18:31:41;;;;;;;;;;;;;;;;;;4902775;29;19973;-35
2022/09/25 18:34:06;;;;;;;;;;;;;;;;;;4905341;29;20326;-34
2022/09/25 18:36:31;;;;;;;;;;;;;;;;;;4906098;29;20502;-34
2022/09/25 18:38:56;;;;;;;;;;;;;;;;;;4901432;29;19931;-34
2022/09/25 18:41:22;;;;;;;;;;;;;;;;;;4902807;29;20015;-34
2022/09/25 18:43:47;;;;;;;;;;;;;;;;;;4899691;29;20104;-34
2022/09/25 18:46:12;;;;;;;;;;;;;;;;;;4905622;29;19921;-34
2022/09/25 18:48:37;;;;;;;;;;;;;;;;;;4901063;29;20277;-35
2022/09/25 18:51:02;;;;;;;;;;;;;;;;;;4905330;29;19919;-34
2022/09/25 18:53:28;;;;;;;;;;;;;;;;;;4903170;29;20054;-35
2022/09/25 18:55:53;;;;;;;;;;;;;;;;;;4908385;29;20254;-34
2022/09/25 18:58:18;;;;;;;;;;;;;;;;;;4904110;29;19915;-34
2022/09/25 19:00:44;;;;;;;;;;;;;;;;;;4903160;29;19970;-34
2022/09/25 19:03:09;;;;;;;;;;;;;;;;;;4900171;29;19922;-35
2022/09/25 19:05:34;;;;;;;;;;;;;;;;;;4900830;29;19919;-34
2022/09/25 19:08:01;;;;;;;;;;;;;;;;;;4911272;29;20368;-34
2022/09/25 19:10:29;;;;;;;;;;;;;;;;;;4907826;29;19927;-34
2022/09/25 19:12:54;;;;;;;;;;;;;;;;;;4906580;29;19940;-35
2022/09/25 19:15:19;;;;;;;;;;;;;;;;;;4905776;29;19919;-34
2022/09/25 19:17:45;;;;;;;;;;;;;;;;;;4902961;29;19919;-34
2022/09/25 19:20:10;;;;;;;;;;;;;;;;;;4903859;29;19927;-34
2022/09/25 19:22:36;;;;;;;;;;;;;;;;;;4901780;29;20425;-34
2022/09/25 19:25:02;;;;;;;;;;;;;;;;;;4904656;29;20412;-34
2022/09/25 19:27:37;;;;;;;;;;;;;;;;;;4903340;29;20437;-35
2022/09/25 19:30:17;;;;;;;;;;;;;;;;;;4899688;29;19925;-34
2022/09/25 19:32:45;;;;;;;;;;;;;;;;;;4907044;29;20405;-34
2022/09/25 19:35:10;;;;;;;;;;;;;;;;;;4899831;29;19923;-34
2022/09/25 19:37:35;;;;;;;;;;;;;;;;;;4902088;29;19926;-35
2022/09/25 19:42:45;;;;;;;;;;;;;;;;;;4903762;29;19932;-34
2022/09/25 19:45:11;;;;;;;;;;;;;;;;;;4903614;29;19919;-34
2022/09/25 19:47:36;;;;;;;;;;;;;;;;;;4900720;29;19947;-35
2022/09/25 19:50:03;;;;;;;;;;;;;;;;;;4903944;29;20309;-34
2022/09/25 19:52:28;;;;;;;;;;;;;;;;;;4904258;29;19926;-34
2022/09/25 19:54:53;;;;;;;;;;;;;;;;;;4903320;29;19916;-34
2022/09/25 19:57:18;;;;;;;;;;;;;;;;;;4900090;29;19919;-34
2022/09/25 19:59:43;;;;;;;;;;;;;;;;;;4903833;29;19919;-34
2022/09/25 20:02:08;;;;;;;;;;;;;;;;;;4905838;29;20019;-34
2022/09/25 20:04:34;;;;;;;;;;;;;;;;;;4902402;29;19923;-34
2022/09/25 20:06:59;;;;;;;;;;;;;;;;;;4905120;29;20091;-34
2022/09/25 20:09:24;;;;;;;;;;;;;;;;;;4901500;29;19935;-34
2022/09/25 20:11:49;;;;;;;;;;;;;;;;;;4906209;29;19922;-34
2022/09/25 20:14:14;;;;;;;;;;;;;;;;;;4904801;29;19911;-34
2022/09/25 20:16:40;;;;;;;;;;;;;;;;;;4899293;29;20308;-35
2022/09/25 20:19:05;;;;;;;;;;;;;;;;;;4897165;29;20092;-35
2022/09/25 20:21:31;;;;;;;;;;;;;;;;;;4902809;29;20026;-34
2022/09/25 20:23:56;;;;;;;;;;;;;;;;;;4902356;29;20370;-34
2022/09/25 20:26:24;;;;;;;;;;;;;;;;;;4907359;29;19922;-34
2022/09/25 20:28:50;;;;;;;;;;;;;;;;;;4910713;29;19915;-34
2022/09/25 20:31:15;;;;;;;;;;;;;;;;;;4901347;29;19962;-34
2022/09/25 20:33:41;;;;;;;;;;;;;;;;;;4904529;29;19926;-34
2022/09/25 20:36:06;;;;;;;;;;;;;;;;;;4906997;29;19926;-34
2022/09/25 20:38:31;;;;;;;;;;;;;;;;;;4901432;29;19955;-34
2022/09/25 20:40:56;;;;;;;;;;;;;;;;;;4907127;29;19934;-34
2022/09/25 20:43:22;;;;;;;;;;;;;;;;;;4901862;29;20142;-35
2022/09/25 20:45:47;;;;;;;;;;;;;;;;;;4899465;29;19926;-34
2022/09/25 20:48:16;;;;;;;;;;;;;;;;;;4905131;29;20034;-34
2022/09/25 20:50:41;;;;;;;;;;;;;;;;;;4904894;29;19966;-34
2022/09/25 20:53:07;;;;;;;;;;;;;;;;;;4903882;29;20235;-34
2022/09/25 20:55:32;;;;;;;;;;;;;;;;;;4902229;29;19919;-34
2022/09/25 20:57:57;;;;;;;;;;;;;;;;;;4902415;29;19966;-34
2022/09/25 21:00:22;;;;;;;;;;;;;;;;;;4904716;29;19930;-34
2022/09/25 21:02:48;;;;;;;;;;;;;;;;;;4906885;29;19954;-34
2022/09/25 21:05:13;;;;;;;;;;;;;;;;;;4903900;29;19919;-35
2022/09/25 21:07:40;;;;;;;;;;;;;;;;;;4900832;29;20661;-34